Terminal Aerodrome Forecast
Issued by NWS

Home | Current Version | Previous Version | Text Only | Print | Product List | Glossary On
Versions: 1 2 3 4 5 6 7 8 9 10 11 12 13 14 15 16 17 18 19 20 21 22 23 24 25 26 27 28 29 30 31
000
FTUS41 KBOX 222338
TAFACK
TAF
KACK 222338Z 2300/2324 05020G35KT 5SM -RA BR OVC003
     FM230500 07011G24KT 2SM +RA BR OVC003
     FM231000 09009KT 2SM -RA BR OVC003
     FM231500 09008KT 3SM BR OVC010
     FM231700 06009KT 3SM -SHRA BR OVC010
     FM232000 02011KT 3SM -SHRA BR OVC008=

USA.gov is the U.S. government's official web portal to all federal, state and local government web resources and services.